PWSweather.com
Personal Weather Stations
Station Observations
OBERT
Bodensee Hinterland, OberteuringenDE

Bodensee HinterlandOberteuringenDE

Lat: 47.714675, Lon: 9.44447

Elevation: 1427

Station Type: Wunder Weather Station

High Low Average
Temperature 50.9°F10.5°C 38.1°F3.4°C 43.7°F6.5°C
Dew Point 48.2°F9.0°C -0.1°F-17.8°C 34.2°F1.2°C
Winds 7.0 mph 11.3 kmh Calm Calm 1.0 mph NE1.6 kmh NE
Wind Gusts 12.8 mph20.6 kmh -- 3.0 mph4.8 kmh
Humidity 100% -5% 77%
Pressure 29.73 in1006.8 mb 29.56 in1001.0 mb -
Precipitation 0.00 in0.0 mm - -
Hour Temp Dew Point Humidity Winds Wind Gusts Pressure Precip Precip Rate Daily Precip Total
12:21 AM 39.0°F3.9°C 39.0°F3.9°C 100% Calm Calm -- 29.56 in1001.0 mb 0.00 in0.0 mm 0.00 in0.0 mm 0.00 in0.0 mm
12:51 AM 39.9°F4.4°C 39.9°F4.4°C 100% Calm Calm -- 29.57 in1001.4 mb 0.00 in0.0 mm 0.00 in0.0 mm 0.00 in0.0 mm
01:21 AM 40.4°F4.7°C 40.4°F4.7°C 100% Calm Calm -- 29.57 in1001.4 mb 0.00 in0.0 mm 0.00 in0.0 mm 0.00 in0.0 mm
01:51 AM 41.0°F5.0°C 41.0°F5.0°C 100% Calm Calm -- 29.58 in1001.7 mb 0.00 in0.0 mm 0.00 in0.0 mm 0.00 in0.0 mm
02:21 AM 41.0°F5.0°C 41.0°F5.0°C 100% Calm Calm -- 29.58 in1001.7 mb 0.00 in0.0 mm 0.00 in0.0 mm 0.00 in0.0 mm
02:51 AM 40.8°F4.9°C 40.8°F4.9°C 100% Calm Calm -- 29.58 in1001.7 mb 0.00 in0.0 mm 0.00 in0.0 mm 0.00 in0.0 mm
03:21 AM 40.1°F4.5°C 40.1°F4.5°C 100% Calm Calm -- 29.58 in1001.7 mb 0.00 in0.0 mm 0.00 in0.0 mm 0.00 in0.0 mm
03:51 AM 40.2°F4.6°C 40.2°F4.6°C 100% Calm Calm -- 29.59 in1002.0 mb 0.00 in0.0 mm 0.00 in0.0 mm 0.00 in0.0 mm
04:21 AM 41.5°F5.3°C -0.1°F-17.8°C -5% Calm Calm -- 29.59 in1002.0 mb 0.00 in0.0 mm 0.00 in0.0 mm 0.00 in0.0 mm
04:51 AM 43.1°F6.2°C -0.1°F-17.8°C -5% Calm Calm -- 29.59 in1002.0 mb 0.00 in0.0 mm 0.00 in0.0 mm 0.00 in0.0 mm
05:21 AM 43.8°F6.6°C -0.1°F-17.8°C -5% Calm Calm -- 29.61 in1002.7 mb 0.00 in0.0 mm 0.00 in0.0 mm 0.00 in0.0 mm
05:51 AM 44.2°F6.8°C -0.1°F-17.8°C -4% 1.8 mph N2.9 kmh N 5.3 mph8.5 kmh 29.61 in1002.7 mb 0.00 in0.0 mm 0.00 in0.0 mm 0.00 in0.0 mm
06:21 AM 44.2°F6.8°C -0.1°F-17.8°C -5% 0.3 mph N0.5 kmh N 2.5 mph4.0 kmh 29.62 in1003.0 mb 0.00 in0.0 mm 0.00 in0.0 mm 0.00 in0.0 mm
06:51 AM 44.0°F6.7°C -0.1°F-17.8°C -5% Calm Calm -- 29.62 in1003.0 mb 0.00 in0.0 mm 0.00 in0.0 mm 0.00 in0.0 mm
07:21 AM 44.2°F6.8°C -0.1°F-17.8°C -5% Calm Calm -- 29.63 in1003.4 mb 0.00 in0.0 mm 0.00 in0.0 mm 0.00 in0.0 mm
07:51 AM 44.6°F7.0°C -0.1°F-17.8°C -5% Calm Calm -- 29.64 in1003.7 mb 0.00 in0.0 mm 0.00 in0.0 mm 0.00 in0.0 mm
08:21 AM 44.6°F7.0°C -0.1°F-17.8°C -5% Calm Calm -- 29.66 in1004.4 mb 0.00 in0.0 mm 0.00 in0.0 mm 0.00 in0.0 mm
08:51 AM 45.3°F7.4°C -0.1°F-17.8°C -5% 1.2 mph 1.9 kmh 3.7 mph6.0 kmh 29.67 in1004.7 mb 0.00 in0.0 mm 0.00 in0.0 mm 0.00 in0.0 mm
09:21 AM 46.2°F7.9°C 46.2°F7.9°C 100% Calm Calm -- 29.68 in1005.1 mb 0.00 in0.0 mm 0.00 in0.0 mm 0.00 in0.0 mm
09:34 AM 46.7°F8.2°C 46.7°F8.2°C 100% Calm Calm 1.2 mph1.9 kmh 29.68 in1005.1 mb 0.00 in0.0 mm 0.00 in0.0 mm 0.00 in0.0 mm
10:04 AM 47.3°F8.5°C 47.3°F8.5°C 100% 1.1 mph N1.8 kmh N 6.2 mph10.0 kmh 29.68 in1005.1 mb 0.00 in0.0 mm 0.00 in0.0 mm 0.00 in0.0 mm
10:34 AM 48.2°F9.0°C 48.2°F9.0°C 100% 2.8 mph 4.5 kmh 8.1 mph13.0 kmh 29.69 in1005.4 mb 0.00 in0.0 mm 0.00 in0.0 mm 0.00 in0.0 mm
11:04 AM 47.4°F8.6°C 47.4°F8.6°C 100% 5.8 mph 9.3 kmh 12.8 mph20.6 kmh 29.69 in1005.4 mb 0.00 in0.0 mm 0.00 in0.0 mm 0.00 in0.0 mm
11:34 AM 47.4°F8.6°C 47.4°F8.6°C 100% 7.0 mph N11.3 kmh N 12.8 mph20.6 kmh 29.69 in1005.4 mb 0.00 in0.0 mm 0.00 in0.0 mm 0.00 in0.0 mm
12:04 PM 47.4°F8.6°C 47.4°F8.6°C 100% 6.9 mph 11.1 kmh 11.8 mph19.0 kmh 29.69 in1005.4 mb 0.00 in0.0 mm 0.00 in0.0 mm 0.00 in0.0 mm
12:34 PM 48.3°F9.1°C 48.2°F9.0°C 99% 5.6 mph 9.0 kmh 10.6 mph17.1 kmh 29.69 in1005.4 mb 0.00 in0.0 mm 0.00 in0.0 mm 0.00 in0.0 mm
01:04 PM 48.5°F9.2°C 47.9°F8.8°C 97% 4.9 mph 7.9 kmh 10.9 mph17.5 kmh 29.69 in1005.4 mb 0.00 in0.0 mm 0.00 in0.0 mm 0.00 in0.0 mm
01:34 PM 49.1°F9.5°C 47.9°F8.8°C 95% 5.2 mph 8.4 kmh 12.5 mph20.1 kmh 29.69 in1005.4 mb 0.00 in0.0 mm 0.00 in0.0 mm 0.00 in0.0 mm
02:04 PM 49.1°F9.5°C 47.5°F8.6°C 94% 4.9 mph 7.9 kmh 10.6 mph17.1 kmh 29.68 in1005.1 mb 0.00 in0.0 mm 0.00 in0.0 mm 0.00 in0.0 mm
02:34 PM 49.6°F9.8°C 47.1°F8.4°C 90% 5.1 mph N8.2 kmh N 8.7 mph14.0 kmh 29.69 in1005.4 mb 0.00 in0.0 mm 0.00 in0.0 mm 0.00 in0.0 mm
03:04 PM 50.9°F10.5°C 48.0°F8.9°C 89% Calm Calm 8.7 mph14.0 kmh 29.69 in1005.4 mb 0.00 in0.0 mm 0.00 in0.0 mm 0.00 in0.0 mm
03:34 PM 49.4°F9.7°C 47.3°F8.5°C 92% 3.7 mph 6.0 kmh 8.7 mph14.0 kmh 29.69 in1005.4 mb 0.00 in0.0 mm 0.00 in0.0 mm 0.00 in0.0 mm
04:04 PM 48.3°F9.1°C 46.0°F7.8°C 91% 0.5 mph N0.8 kmh N 10.9 mph17.5 kmh 29.70 in1005.8 mb 0.00 in0.0 mm 0.00 in0.0 mm 0.00 in0.0 mm
04:34 PM 47.1°F8.4°C 45.9°F7.7°C 95% Calm Calm 1.2 mph1.9 kmh 29.70 in1005.8 mb 0.00 in0.0 mm 0.00 in0.0 mm 0.00 in0.0 mm
05:04 PM 44.6°F7.0°C 44.1°F6.7°C 98% Calm Calm -- 29.70 in1005.8 mb 0.00 in0.0 mm 0.00 in0.0 mm 0.00 in0.0 mm
05:34 PM 42.8°F6.0°C 42.8°F6.0°C 100% Calm Calm -- 29.71 in1006.1 mb 0.00 in0.0 mm 0.00 in0.0 mm 0.00 in0.0 mm
06:04 PM 43.1°F6.2°C 43.1°F6.2°C 100% Calm Calm -- 29.72 in1006.4 mb 0.00 in0.0 mm 0.00 in0.0 mm 0.00 in0.0 mm
06:34 PM 41.5°F5.3°C 41.5°F5.3°C 100% Calm Calm -- 29.73 in1006.8 mb 0.00 in0.0 mm 0.00 in0.0 mm 0.00 in0.0 mm
07:04 PM 40.8°F4.9°C 40.8°F4.9°C 100% Calm Calm -- 29.73 in1006.8 mb 0.00 in0.0 mm 0.00 in0.0 mm 0.00 in0.0 mm
07:34 PM 39.7°F4.3°C 39.7°F4.3°C 100% Calm Calm 0.3 mph0.5 kmh 29.73 in1006.8 mb 0.00 in0.0 mm 0.00 in0.0 mm 0.00 in0.0 mm
08:04 PM 40.4°F4.7°C 40.4°F4.7°C 100% Calm Calm -- 29.73 in1006.8 mb 0.00 in0.0 mm 0.00 in0.0 mm 0.00 in0.0 mm
08:34 PM 39.2°F4.0°C 39.2°F4.0°C 100% Calm Calm -- 29.73 in1006.8 mb 0.00 in0.0 mm 0.00 in0.0 mm 0.00 in0.0 mm
09:04 PM 39.0°F3.9°C 39.0°F3.9°C 100% Calm Calm -- 29.73 in1006.8 mb 0.00 in0.0 mm 0.00 in0.0 mm 0.00 in0.0 mm
09:34 PM 38.8°F3.8°C 38.8°F3.8°C 100% Calm Calm -- 29.72 in1006.4 mb 0.00 in0.0 mm 0.00 in0.0 mm 0.00 in0.0 mm
10:04 PM 38.1°F3.4°C 38.1°F3.4°C 100% Calm Calm -- 29.72 in1006.4 mb 0.00 in0.0 mm 0.00 in0.0 mm 0.00 in0.0 mm
10:34 PM 38.6°F3.7°C 38.6°F3.7°C 100% Calm Calm -- 29.73 in1006.8 mb 0.00 in0.0 mm 0.00 in0.0 mm 0.00 in0.0 mm
11:04 PM 38.6°F3.7°C 38.6°F3.7°C 100% Calm Calm -- 29.73 in1006.8 mb 0.00 in0.0 mm 0.00 in0.0 mm 0.00 in0.0 mm
11:34 PM 38.8°F3.8°C 38.8°F3.8°C 100% Calm Calm -- 29.72 in1006.4 mb 0.00 in0.0 mm 0.00 in0.0 mm 0.00 in0.0 mm